Time;durP1;ratioP1;P1;durP2;ratioP2;P2;SDS_P1;SDS_P2;PMS_P1;PMS_P2;Temp;Humidity;BMP_temperature;BMP_pressure;BME280_temperature;BME280_humidity;BME280_pressure;Samples;Min_cycle;Max_cycle;Signal;HPM_P1;HPM_P2
2022/05/09 00:01:54;;;;;;;2.92;1.15;;;20.80;58.70;;;;;;6285805;22;19995;-56
2022/05/09 00:04:20;;;;;;;2.47;1.13;;;;;;;;;;6275388;22;19996;-56
2022/05/09 00:06:47;;;;;;;2.72;1.15;;;20.60;69.20;;;;;;6285687;22;20002;-56
2022/05/09 00:09:13;;;;;;;3.33;1.30;;;20.60;85.90;;;;;;6285626;22;20011;-55
2022/05/09 00:11:38;;;;;;;3.80;1.20;;;20.90;86.10;;;;;;6285692;22;19999;-56
2022/05/09 00:14:04;;;;;;;3.60;1.20;;;20.80;86.20;;;;;;6285752;22;20000;-55
2022/05/09 00:16:33;;;;;;;2.90;1.27;;;20.80;84.90;;;;;;6285694;22;19995;-56
2022/05/09 00:19:03;;;;;;;3.10;1.33;;;20.60;86.40;;;;;;6275325;22;20453;-55
2022/05/09 00:21:49;;;;;;;5.07;1.63;;;20.70;86.10;;;;;;6275845;22;20007;-56
2022/05/09 00:24:17;;;;;;;4.40;1.30;;;20.80;51.60;;;;;;6285709;22;20000;-56
2022/05/09 00:26:47;;;;;;;2.35;1.38;;;20.70;86.30;;;;;;6285662;22;19999;-57
2022/05/09 00:29:14;;;;;;;5.90;1.70;;;20.90;86.40;;;;;;6285580;22;20004;-56
2022/05/09 00:31:43;;;;;;;2.55;1.30;;;20.90;86.20;;;;;;6287039;22;20000;-55
2022/05/09 00:34:10;;;;;;;3.03;1.40;;;20.80;51.70;;;;;;6277688;22;20007;-56
2022/05/09 00:36:36;;;;;;;4.07;1.70;;;20.70;85.70;;;;;;6277357;22;19999;-56
2022/05/09 00:39:02;;;;;;;2.10;1.20;;;20.80;85.80;;;;;;6287738;22;19996;-57
2022/05/09 00:41:34;;;;;;;3.35;1.10;;;20.90;80.00;;;;;;6287658;22;20431;-56
2022/05/09 00:44:27;;;;;;;2.50;1.23;;;20.60;73.40;;;;;;6287562;22;20003;-56
2022/05/09 00:46:55;;;;;;;4.05;1.13;;;20.30;85.90;;;;;;6272845;22;20003;-56
2022/05/09 00:49:27;;;;;;;4.03;1.30;;;20.50;86.00;;;;;;6287282;22;20043;-56
2022/05/09 00:52:14;;;;;;;3.40;1.27;;;20.60;86.20;;;;;;6287408;22;20014;-56
2022/05/09 00:54:47;;;;;;;2.80;1.25;;;20.70;66.70;;;;;;6287489;22;20006;-55
2022/05/09 00:57:25;;;;;;;3.28;1.10;;;20.70;86.10;;;;;;6287460;22;19992;-56
2022/05/09 00:59:55;;;;;;;2.28;1.00;;;20.70;86.30;;;;;;6287324;22;20004;-56
2022/05/09 01:02:22;;;;;;;2.38;1.15;;;20.60;51.60;;;;;;6287441;22;20079;-55
2022/05/09 01:04:57;;;;;;;2.42;1.35;;;20.60;50.30;;;;;;6287320;22;19995;-56
2022/05/09 01:07:23;;;;;;;4.88;1.70;;;20.60;84.20;;;;;;6287401;22;20004;-56
2022/05/09 01:09:49;;;;;;;4.30;1.13;;;20.60;86.10;;;;;;6277183;22;20043;-56
2022/05/09 01:12:19;;;;;;;2.08;0.98;;;20.50;86.20;;;;;;6277341;22;19992;-56
2022/05/09 01:14:45;;;;;;;1.05;0.85;;;;;;;;;;6287409;22;20312;-56
2022/05/09 01:17:11;;;;;;;2.08;0.90;;;20.40;80.40;;;;;;6287270;22;20000;-56
2022/05/09 01:19:40;;;;;;;3.05;1.27;;;20.50;85.70;;;;;;6287252;22;19996;-57
2022/05/09 01:22:23;;;;;;;4.47;1.60;;;20.50;80.40;;;;;;6277250;22;20331;-55
2022/05/09 01:24:49;;;;;;;2.22;1.05;;;;;;;;;;6287162;22;19996;-56
2022/05/09 01:27:15;;;;;;;2.33;1.30;;;20.10;86.00;;;;;;6277196;22;19999;-56
2022/05/09 01:30:09;;;;;;;3.13;1.10;;;20.10;86.00;;;;;;6287014;22;20015;-55
2022/05/09 01:32:43;;;;;;;2.50;1.33;;;20.60;86.20;;;;;;6277199;22;20004;-57
2022/05/09 01:35:35;;;;;;;3.15;1.40;;;20.70;86.40;;;;;;6287216;22;20007;-48
2022/05/09 01:38:44;;;;;;;1.80;1.02;;;20.70;86.40;;;;;;6287056;22;20326;-47
2022/05/09 01:41:10;;;;;;;2.65;1.15;;;;;;;;;;6236339;22;19995;-48
2022/05/09 01:43:36;;;;;;;2.58;1.50;;;;;;;;;;6286953;22;20056;-48
2022/05/09 01:46:08;;;;;;;1.65;1.02;;;20.50;58.80;;;;;;6286843;22;20027;-47
2022/05/09 01:51:18;;;;;;;2.17;1.20;;;20.70;86.00;;;;;;6286945;22;20054;-49
2022/05/09 01:53:52;;;;;;;3.55;1.25;;;20.40;85.50;;;;;;6287039;22;20323;-56
2022/05/09 01:56:24;;;;;;;3.35;1.33;;;20.50;50.00;;;;;;6286953;22;19995;-57
2022/05/09 01:58:50;;;;;;;3.47;1.10;;;;;;;;;;6286633;22;20027;-55
2022/05/09 02:01:17;;;;;;;2.45;1.27;;;20.50;51.80;;;;;;6286761;22;19999;-56
2022/05/09 02:03:46;;;;;;;4.20;1.52;;;20.50;85.70;;;;;;6286794;22;20378;-55
2022/05/09 02:06:13;;;;;;;5.93;1.85;;;20.60;82.30;;;;;;6286679;22;20003;-54
2022/05/09 02:08:39;;;;;;;3.30;1.30;;;20.50;85.50;;;;;;6286666;22;20285;-57
2022/05/09 02:11:05;;;;;;;3.80;1.23;;;20.50;56.20;;;;;;6286742;22;19999;-56
2022/05/09 02:13:31;;;;;;;4.70;1.10;;;20.00;85.20;;;;;;6286629;22;20019;-56
2022/05/09 02:15:58;;;;;;;3.28;1.00;;;20.40;51.20;;;;;;6286670;22;19995;-56
2022/05/09 02:18:24;;;;;;;3.45;1.30;;;;;;;;;;6276593;22;20070;-56
2022/05/09 02:20:51;;;;;;;3.75;1.25;;;20.40;51.40;;;;;;6276607;22;20011;-55
2022/05/09 02:23:17;;;;;;;2.35;1.05;;;20.20;85.30;;;;;;6286505;22;19999;-57
2022/05/09 02:25:44;;;;;;;5.88;1.23;;;20.40;85.40;;;;;;6286586;22;19996;-54
2022/05/09 02:28:10;;;;;;;3.78;1.80;;;20.30;85.30;;;;;;6286414;22;20000;-55
2022/05/09 02:30:38;;;;;;;5.22;1.50;;;20.50;85.20;;;;;;6286622;22;19996;-55
2022/05/09 02:33:04;;;;;;;4.45;1.23;;;20.20;58.00;;;;;;6276679;22;20023;-54
2022/05/09 02:35:30;;;;;;;3.05;1.30;;;20.10;73.40;;;;;;6286460;22;19995;-56
2022/05/09 02:37:56;;;;;;;3.05;1.45;;;20.40;50.50;;;;;;6286490;22;20323;-56
2022/05/09 02:40:24;;;;;;;4.18;1.13;;;20.10;50.90;;;;;;6286440;22;20083;-54
2022/05/09 02:42:51;;;;;;;3.75;1.40;;;20.30;84.70;;;;;;6276427;22;20019;-57
2022/05/09 02:45:16;;;;;;;3.58;1.30;;;20.40;84.60;;;;;;6286438;22;20002;-56
2022/05/09 02:47:42;;;;;;;3.28;1.38;;;20.40;84.60;;;;;;6286345;22;19995;-56
2022/05/09 02:50:09;;;;;;;2.85;1.13;;;20.50;60.70;;;;;;6286343;22;20053;-56
2022/05/09 02:52:36;;;;;;;2.13;0.80;;;20.20;84.30;;;;;;6276228;22;20049;-57
2022/05/09 02:55:02;;;;;;;3.45;1.30;;;20.40;71.20;;;;;;6276109;22;20387;-57
2022/05/09 02:57:28;;;;;;;3.17;1.15;;;20.00;84.40;;;;;;6286209;22;20001;-55
2022/05/09 02:59:54;;;;;;;3.83;1.20;;;20.30;75.60;;;;;;6275680;22;20008;-55
2022/05/09 03:02:19;;;;;;;3.83;1.20;;;;;;;;;;6286145;22;20442;-55
2022/05/09 03:04:46;;;;;;;3.42;1.52;;;;;;;;;;6286160;22;20411;-55
2022/05/09 03:07:14;;;;;;;2.97;1.20;;;20.30;51.10;;;;;;6276290;22;20083;-47
2022/05/09 03:09:41;;;;;;;2.63;1.33;;;20.80;53.50;;;;;;6286054;22;20010;-47
2022/05/09 03:12:08;;;;;;;3.00;1.30;;;20.30;85.00;;;;;;6286103;22;20015;-47
2022/05/09 03:14:35;;;;;;;3.00;1.60;;;20.20;51.10;;;;;;6276100;22;19996;-47
2022/05/09 03:17:01;;;;;;;2.80;1.38;;;19.70;84.50;;;;;;6286100;22;20077;-47
2022/05/09 03:19:27;;;;;;;4.20;1.60;;;20.10;84.70;;;;;;6286039;22;20000;-47
2022/05/09 03:21:53;;;;;;;2.97;1.30;;;20.30;84.70;;;;;;6286052;22;19996;-47
2022/05/09 03:24:19;;;;;;;2.63;1.50;;;19.90;84.30;;;;;;6286080;22;19999;-54
2022/05/09 03:26:45;;;;;;;2.28;1.20;;;;;;;;;;6275750;22;20062;-47
2022/05/09 03:29:12;;;;;;;3.40;1.13;;;20.30;84.70;;;;;;6285873;22;20046;-47
2022/05/09 03:31:38;;;;;;;3.53;1.38;;;19.90;66.70;;;;;;6285991;22;19991;-49
2022/05/09 03:34:04;;;;;;;4.15;1.42;;;;;;;;;;6286002;22;20006;-48
2022/05/09 03:36:30;;;;;;;3.22;1.35;;;;;;;;;;6285934;22;19999;-49
2022/05/09 03:38:57;;;;;;;3.55;1.30;;;;;;;;;;6286245;22;20128;-49
2022/05/09 03:41:22;;;;;;;2.78;1.02;;;20.10;84.20;;;;;;6285911;22;20035;-49
2022/05/09 03:43:48;;;;;;;2.45;1.17;;;20.10;84.10;;;;;;6275959;22;20183;-56
2022/05/09 03:46:14;;;;;;;2.80;1.20;;;20.10;69.10;;;;;;6275935;22;19999;-56
2022/05/09 03:48:40;;;;;;;3.10;0.98;;;;;;;;;;6285616;22;20126;-56
2022/05/09 03:51:06;;;;;;;3.13;1.33;;;;;;;;;;6285807;22;20006;-56
2022/05/09 03:53:32;;;;;;;5.30;1.50;;;;;;;;;;6285765;22;20438;-55
2022/05/09 03:55:58;;;;;;;4.20;1.65;;;;;;;;;;6285789;22;19999;-57
2022/05/09 03:58:24;;;;;;;2.42;1.42;;;21.10;52.50;;;;;;6285603;22;20042;-57
2022/05/09 04:03:26;;;;;;;3.03;1.50;;;;;;;;;;6258276;22;20024;-50
2022/05/09 04:05:53;;;;;;;3.40;1.30;;;;;;;;;;6286892;22;19996;-49
2022/05/09 04:08:22;;;;;;;4.38;1.35;;;19.80;84.20;;;;;;6277641;22;20054;-50
2022/05/09 04:10:51;;;;;;;4.18;1.50;;;20.20;84.60;;;;;;6287707;22;20002;-49
2022/05/09 04:13:17;;;;;;;3.83;1.42;;;;;;;;;;6287680;22;19992;-49
2022/05/09 04:18:32;;;;;;;2.92;1.00;;;20.00;53.30;;;;;;6287652;22;20334;-48
2022/05/09 04:20:57;;;;;;;4.30;1.50;;;20.10;83.40;;;;;;6277286;22;20075;-48
2022/05/09 04:23:23;;;;;;;1.83;1.27;;;20.10;76.90;;;;;;6287568;22;20019;-49
2022/05/09 04:25:49;;;;;;;3.15;1.35;;;;;;;;;;6287502;22;20006;-49
2022/05/09 04:28:17;;;;;;;1.42;1.25;;;20.10;84.40;;;;;;6277436;22;20438;-50
2022/05/09 04:30:44;;;;;;;2.92;1.50;;;19.80;83.70;;;;;;6287393;22;20003;-49
2022/05/09 04:33:10;;;;;;;3.13;1.50;;;19.70;84.00;;;;;;6287330;22;19996;-49
2022/05/09 04:35:39;;;;;;;3.10;1.38;;;20.20;84.60;;;;;;6287409;22;20003;-49
2022/05/09 04:38:06;;;;;;;4.57;1.67;;;20.00;84.30;;;;;;6277182;22;20047;-49
2022/05/09 04:40:35;;;;;;;5.88;1.88;;;20.00;50.60;;;;;;6287298;22;19996;-49
2022/05/09 04:43:01;;;;;;;3.53;1.47;;;;;;;;;;6277450;22;19999;-50
2022/05/09 04:45:29;;;;;;;3.17;1.20;;;20.20;68.70;;;;;;6287263;22;20071;-49
2022/05/09 04:47:55;;;;;;;3.30;1.70;;;;;;;;;;6287252;22;20045;-49
2022/05/09 04:50:23;;;;;;;2.40;1.00;;;20.20;50.90;;;;;;6287308;22;20022;-50
2022/05/09 04:52:49;;;;;;;5.65;1.45;;;19.70;53.60;;;;;;6287206;22;20429;-49
2022/05/09 04:55:16;;;;;;;2.90;1.63;;;20.00;50.60;;;;;;6287326;22;19996;-49
2022/05/09 04:57:43;;;;;;;2.70;1.40;;;20.10;84.30;;;;;;6287211;22;20003;-50
2022/05/09 05:00:15;;;;;;;3.88;1.58;;;19.50;58.00;;;;;;6287189;22;20326;-49
2022/05/09 05:02:40;;;;;;;4.88;1.50;;;19.90;84.20;;;;;;6265884;22;20019;-53
2022/05/09 05:05:07;;;;;;;5.63;1.52;;;20.00;84.40;;;;;;6246513;23;19993;-49
2022/05/09 05:07:33;;;;;;;2.25;1.35;;;19.60;84.00;;;;;;6256271;23;20027;-50
2022/05/09 05:09:59;;;;;;;3.80;1.45;;;;;;;;;;6256196;23;20004;-50
2022/05/09 05:12:25;;;;;;;3.80;1.42;;;;;;;;;;6246434;23;20339;-51
2022/05/09 05:14:51;;;;;;;4.03;1.63;;;;;;;;;;6256343;23;20000;-49
2022/05/09 05:17:17;;;;;;;4.00;1.60;;;;;;;;;;6255862;23;20484;-51
2022/05/09 05:19:44;;;;;;;2.67;1.48;;;;;;;;;;6256082;23;20026;-49
2022/05/09 05:22:15;;;;;;;4.45;1.90;;;19.50;69.20;;;;;;6256156;23;20042;-49
2022/05/09 05:24:44;;;;;;;2.95;1.40;;;20.00;56.40;;;;;;6246428;23;20004;-50
2022/05/09 05:27:11;;;;;;;4.97;1.35;;;20.00;84.30;;;;;;6246308;23;19996;-48
2022/05/09 05:29:38;;;;;;;4.07;1.48;;;20.20;66.80;;;;;;6255989;23;20087;-49
2022/05/09 05:32:25;;;;;;;3.58;1.45;;;20.10;84.20;;;;;;6256114;23;19993;-49
2022/05/09 05:34:51;;;;;;;3.00;1.73;;;19.90;50.30;;;;;;6256069;23;20050;-49
2022/05/09 05:37:17;;;;;;;2.85;1.30;;;20.00;52.30;;;;;;6256081;23;20020;-49
2022/05/09 05:39:44;;;;;;;4.45;1.67;;;;;;;;;;6256000;23;19997;-49
2022/05/09 05:42:11;;;;;;;3.35;1.38;;;20.20;71.40;;;;;;6246051;23;20415;-50
2022/05/09 05:44:37;;;;;;;4.13;1.40;;;20.00;84.10;;;;;;6246160;23;20071;-49
2022/05/09 05:47:12;;;;;;;1.60;1.13;;;19.90;49.10;;;;;;6255848;23;20079;-48
2022/05/09 05:49:38;;;;;;;2.13;1.02;;;20.00;84.20;;;;;;6255165;23;20031;-51
2022/05/09 05:52:05;;;;;;;7.63;1.90;;;19.90;84.00;;;;;;6246081;23;20038;-52
2022/05/09 05:54:33;;;;;;;3.13;1.40;;;19.80;50.50;;;;;;6255925;23;20019;-54
2022/05/09 05:56:59;;;;;;;3.10;1.45;;;19.50;66.80;;;;;;6246007;23;20027;-52
2022/05/09 05:59:25;;;;;;;5.43;1.15;;;19.90;73.40;;;;;;6255972;23;19996;-55
2022/05/09 06:01:52;;;;;;;4.38;1.48;;;19.90;57.30;;;;;;6255600;22;20446;-54
2022/05/09 06:04:18;;;;;;;4.85;1.45;;;19.90;50.20;;;;;;6255949;23;19996;-54
2022/05/09 06:06:44;;;;;;;3.05;1.27;;;20.00;84.30;;;;;;6245702;23;20503;-53
2022/05/09 06:09:11;;;;;;;5.88;1.40;;;19.90;84.30;;;;;;6255737;23;20004;-55
2022/05/09 06:11:37;;;;;;;5.30;1.55;;;19.80;70.40;;;;;;6246022;23;20319;-55
2022/05/09 06:14:05;;;;;;;7.85;1.60;;;19.80;77.20;;;;;;6255625;23;19996;-51
2022/05/09 06:16:30;;;;;;;6.75;1.48;;;20.40;84.70;;;;;;6255781;23;20003;-54
2022/05/09 06:18:56;;;;;;;6.03;1.60;;;20.30;84.80;;;;;;6255699;23;20465;-53
2022/05/09 06:21:22;;;;;;;3.22;1.58;;;20.10;85.10;;;;;;6245799;23;19997;-53
2022/05/09 06:23:49;;;;;;;3.03;1.50;;;20.10;85.30;;;;;;6255742;23;20484;-53
2022/05/09 06:26:15;;;;;;;5.90;1.65;;;;;;;;;;6245834;23;19992;-51
2022/05/09 06:28:41;;;;;;;4.10;1.50;;;19.90;68.00;;;;;;6255048;23;20008;-50
2022/05/09 06:31:07;;;;;;;6.07;1.55;;;;;;;;;;6255504;23;20027;-52
2022/05/09 06:33:33;;;;;;;5.43;1.40;;;20.30;58.30;;;;;;6255620;23;20000;-50
2022/05/09 06:36:01;;;;;;;5.47;1.48;;;20.30;51.40;;;;;;6255610;23;20028;-50
2022/05/09 06:38:27;;;;;;;3.60;1.30;;;;;;;;;;6245695;23;20374;-51
2022/05/09 06:40:56;;;;;;;3.90;1.58;;;20.30;56.20;;;;;;6255525;23;19996;-53
2022/05/09 06:43:23;;;;;;;1.90;1.10;;;20.30;84.70;;;;;;6255354;23;20049;-50
2022/05/09 06:45:50;;;;;;;3.92;1.40;;;20.40;84.70;;;;;;6255681;23;20000;-50
2022/05/09 06:48:16;;;;;;;3.20;1.30;;;20.30;84.50;;;;;;6255335;23;20036;-51
2022/05/09 06:50:42;;;;;;;6.13;1.52;;;20.20;72.30;;;;;;6255373;23;19999;-52
2022/05/09 06:53:10;;;;;;;4.10;1.42;;;20.30;84.30;;;;;;6245355;23;20111;-50
2022/05/09 06:55:35;;;;;;;2.88;1.60;;;20.30;84.10;;;;;;6245494;23;19996;-50
2022/05/09 06:58:09;;;;;;;6.63;1.40;;;20.60;79.00;;;;;;6255233;23;20423;-51
2022/05/09 07:00:35;;;;;;;1.70;1.17;;;;;;;;;;6245194;23;20318;-49
2022/05/09 07:03:01;;;;;;;3.55;1.30;;;;;;;;;;6244319;22;20272;-48
2022/05/09 07:05:27;;;;;;;3.50;1.38;;;20.80;51.60;;;;;;6254773;23;20019;-49
2022/05/09 07:07:53;;;;;;;2.75;1.45;;;20.40;65.80;;;;;;6244722;23;20000;-51
2022/05/09 07:10:19;;;;;;;2.78;1.50;;;20.30;58.70;;;;;;6254518;23;20049;-48
2022/05/09 07:12:50;;;;;;;6.07;1.60;;;20.70;83.90;;;;;;6244843;23;20366;-49
2022/05/09 07:15:23;;;;;;;3.40;1.15;;;20.50;84.10;;;;;;6254579;23;20058;-51
2022/05/09 07:17:52;;;;;;;1.60;1.30;;;20.30;50.40;;;;;;6254714;23;19996;-49
2022/05/09 07:20:19;;;;;;;3.17;1.90;;;20.60;84.00;;;;;;6254538;23;20075;-49
2022/05/09 07:22:45;;;;;;;3.20;1.63;;;;;;;;;;6254566;23;20037;-48
2022/05/09 07:25:13;;;;;;;4.57;2.28;;;20.40;50.30;;;;;;6254534;23;20023;-48
2022/05/09 07:27:42;;;;;;;3.22;1.08;;;20.50;49.40;;;;;;6244615;23;19996;-47
2022/05/09 07:30:09;;;;;;;3.30;1.63;;;20.50;83.20;;;;;;6244717;23;20008;-49
2022/05/09 07:32:36;;;;;;;4.60;1.92;;;;;;;;;;6244870;23;19992;-49
2022/05/09 07:35:03;;;;;;;2.03;0.90;;;20.70;84.10;;;;;;6244819;23;20004;-49
2022/05/09 07:37:29;;;;;;;3.25;1.33;;;;;;;;;;6254644;23;20043;-49
2022/05/09 07:39:55;;;;;;;1.60;1.00;;;;;;;;;;6254457;23;19996;-49
2022/05/09 07:42:21;;;;;;;2.00;1.00;;;;;;;;;;6254682;23;20000;-49
2022/05/09 07:44:48;;;;;;;2.05;1.13;;;;;;;;;;6254591;23;20319;-47
2022/05/09 07:47:14;;;;;;;5.45;1.40;;;;;;;;;;6245030;23;20431;-47
2022/05/09 07:49:40;;;;;;;3.28;1.45;;;20.40;84.10;;;;;;6254581;23;20032;-49
2022/05/09 07:52:08;;;;;;;3.15;1.75;;;;;;;;;;6254611;23;20007;-49
2022/05/09 07:54:33;;;;;;;2.20;1.10;;;20.80;84.20;;;;;;6254235;23;20331;-48
2022/05/09 07:56:59;;;;;;;4.45;1.02;;;20.90;83.70;;;;;;6254996;23;20004;-49
2022/05/09 07:59:25;;;;;;;2.35;1.35;;;;;;;;;;6254566;23;20007;-49
2022/05/09 08:01:52;;;;;;;2.20;1.20;;;20.80;78.40;;;;;;6244148;22;20039;-49
2022/05/09 08:04:18;;;;;;;6.15;1.40;;;20.40;84.10;;;;;;6254590;23;20074;-48
2022/05/09 08:06:45;;;;;;;3.45;1.48;;;20.80;61.90;;;;;;6254394;23;20000;-49
2022/05/09 08:09:11;;;;;;;4.90;1.40;;;21.00;60.70;;;;;;6244022;23;20458;-48
2022/05/09 08:11:38;;;;;;;4.50;1.65;;;;;;;;;;6254525;23;20075;-49
2022/05/09 08:14:04;;;;;;;1.98;1.20;;;21.20;84.40;;;;;;6254446;23;20071;-48
2022/05/09 08:16:30;;;;;;;5.43;1.40;;;;;;;;;;6254519;23;20339;-49
2022/05/09 08:18:56;;;;;;;5.55;0.90;;;21.10;83.70;;;;;;6254487;23;20000;-48
2022/05/09 08:21:22;;;;;;;2.13;1.27;;;21.10;49.80;;;;;;6244610;23;19996;-49
2022/05/09 08:23:49;;;;;;;2.50;1.15;;;21.00;84.20;;;;;;6254471;23;20058;-49
2022/05/09 08:26:16;;;;;;;4.60;1.20;;;21.20;59.50;;;;;;6244214;23;20015;-48
2022/05/09 08:28:42;;;;;;;2.75;1.27;;;21.00;84.10;;;;;;6254186;23;20053;-49
2022/05/09 08:31:08;;;;;;;6.57;1.30;;;21.00;84.00;;;;;;6253391;23;20057;-51
2022/05/09 08:33:33;;;;;;;5.18;1.35;;;20.80;83.80;;;;;;6254327;23;20382;-48
2022/05/09 08:36:02;;;;;;;5.70;1.48;;;;;;;;;;6254339;23;19996;-51
2022/05/09 08:38:28;;;;;;;3.15;1.10;;;21.10;83.40;;;;;;6217263;23;20438;-49
2022/05/09 08:41:07;;;;;;;4.50;1.08;;;21.10;50.10;;;;;;6254323;23;19992;-51
2022/05/09 08:44:02;;;;;;;2.83;1.17;;;21.20;48.70;;;;;;6244878;23;20001;-50
2022/05/09 08:46:39;;;;;;;3.83;1.17;;;21.40;83.40;;;;;;6254270;23;20003;-51
2022/05/09 08:49:42;;;;;;;3.72;1.20;;;21.30;83.20;;;;;;6254306;23;20004;-50
2022/05/09 08:52:26;;;;;;;3.83;1.25;;;21.20;62.30;;;;;;6255169;23;20051;-51
2022/05/09 08:54:54;;;;;;;1.77;0.82;;;21.50;83.00;;;;;;6256164;23;20059;-50
2022/05/09 08:57:28;;;;;;;2.35;1.38;;;21.20;48.40;;;;;;6256140;23;20006;-58
2022/05/09 09:00:01;;;;;;;2.92;1.20;;;21.40;48.50;;;;;;6255835;23;20008;-58
2022/05/09 09:02:38;;;;;;;5.18;0.85;;;21.40;48.40;;;;;;6255587;22;20060;-58
2022/05/09 09:05:05;;;;;;;4.68;0.82;;;21.40;83.40;;;;;;6256424;23;20003;-57
2022/05/09 09:08:03;;;;;;;5.07;1.00;;;21.50;48.50;;;;;;6256396;23;20023;-56
2022/05/09 09:10:31;;;;;;;3.30;1.23;;;;;;;;;;6256053;23;20461;-55
2022/05/09 09:13:28;;;;;;;4.75;0.90;;;21.20;82.30;;;;;;6256108;23;20006;-56
2022/05/09 09:16:22;;;;;;;5.10;1.20;;;21.60;83.50;;;;;;6256458;23;20276;-57
2022/05/09 09:18:56;;;;;;;5.47;0.85;;;21.90;83.40;;;;;;6246157;23;20450;-58
2022/05/09 09:21:51;;;;;;;2.28;0.88;;;21.60;83.50;;;;;;6256427;23;20305;-58
2022/05/09 09:24:38;;;;;;;4.20;1.23;;;21.70;48.30;;;;;;6235727;23;20070;-56
2022/05/09 09:27:35;;;;;;;4.25;1.30;;;21.90;83.20;;;;;;6256036;23;20003;-55
2022/05/09 09:30:10;;;;;;;4.15;1.80;;;22.00;83.30;;;;;;6256048;23;20457;-58
2022/05/09 09:32:40;;;;;;;3.08;1.52;;;22.00;82.80;;;;;;6246568;23;19996;-56
2022/05/09 09:35:30;;;;;;;6.65;1.20;;;21.90;83.20;;;;;;6246427;23;20427;-55
2022/05/09 09:38:08;;;;;;;5.43;1.38;;;21.90;59.50;;;;;;6246504;23;20365;-55
2022/05/09 09:40:34;;;;;;;3.38;1.38;;;;;;;;;;6256217;23;20318;-59
2022/05/09 09:43:00;;;;;;;3.90;1.00;;;22.00;72.90;;;;;;6255948;23;20027;-55
2022/05/09 09:45:25;;;;;;;2.95;1.40;;;21.90;81.60;;;;;;6256069;23;20016;-58
2022/05/09 09:48:10;;;;;;;2.75;0.90;;;21.70;65.30;;;;;;6256226;23;20050;-58
2022/05/09 09:50:37;;;;;;;3.20;1.20;;;22.10;82.20;;;;;;6246390;23;20008;-56
2022/05/09 09:53:03;;;;;;;2.53;1.10;;;22.20;82.10;;;;;;6256132;23;20042;-57
2022/05/09 09:55:35;;;;;;;2.60;0.80;;;22.10;48.60;;;;;;6256111;23;20058;-55
2022/05/09 09:58:26;;;;;;;2.60;0.90;;;22.20;81.70;;;;;;6256042;23;20424;-59
2022/05/09 10:01:04;;;;;;;6.18;1.05;;;22.40;81.30;;;;;;6245804;23;20023;-58
2022/05/09 10:03:32;;;;;;;1.67;1.10;;;21.90;81.40;;;;;;6245405;23;20351;-55
2022/05/09 10:05:58;;;;;;;4.55;1.15;;;22.30;81.60;;;;;;6255455;23;20003;-58
2022/05/09 10:08:29;;;;;;;2.17;0.98;;;22.30;48.50;;;;;;6255397;23;20015;-56
2022/05/09 10:11:00;;;;;;;2.30;0.98;;;22.30;48.30;;;;;;6255583;23;20003;-58
2022/05/09 10:13:38;;;;;;;2.08;0.85;;;22.30;81.20;;;;;;6255411;23;19996;-58
2022/05/09 10:16:08;;;;;;;1.88;0.73;;;22.30;60.40;;;;;;6255054;23;20058;-56
2022/05/09 10:18:34;;;;;;;4.35;1.10;;;22.40;80.60;;;;;;6245784;23;20379;-58
2022/05/09 10:21:13;;;;;;;3.65;1.10;;;22.40;80.50;;;;;;6255778;23;20006;-58
2022/05/09 10:26:34;;;;;;;3.72;0.90;;;22.40;51.40;;;;;;6245781;23;20458;-58
2022/05/09 10:29:05;;;;;;;3.25;1.10;;;22.30;80.20;;;;;;6255656;23;20530;-57
2022/05/09 10:32:02;;;;;;;4.28;0.82;;;22.30;80.00;;;;;;6245907;23;20004;-57
2022/05/09 10:35:05;;;;;;;3.85;1.33;;;22.20;81.40;;;;;;6221148;23;20339;-57
2022/05/09 10:37:43;;;;;;;3.88;1.00;;;22.50;47.10;;;;;;6245769;23;19993;-58
2022/05/09 10:40:25;;;;;;;1.40;1.02;;;22.50;47.00;;;;;;6255372;23;20004;-55
2022/05/09 10:43:11;;;;;;;4.57;1.10;;;22.60;48.00;;;;;;6245386;23;20504;-56
2022/05/09 10:45:44;;;;;;;3.00;0.80;;;22.30;51.70;;;;;;6245510;23;20000;-56
2022/05/09 10:48:19;;;;;;;2.10;0.80;;;22.50;46.80;;;;;;6255535;23;20433;-56
2022/05/09 10:51:00;;;;;;;2.17;0.70;;;22.40;79.40;;;;;;6219027;23;20008;-56
2022/05/09 10:53:31;;;;;;;2.45;1.23;;;22.50;79.70;;;;;;6255405;23;19996;-56
2022/05/09 10:56:11;;;;;;;6.50;1.35;;;22.60;46.70;;;;;;6255445;23;20328;-56
2022/05/09 10:59:06;;;;;;;2.95;0.80;;;22.30;56.60;;;;;;6255605;23;20000;-57
2022/05/09 11:01:56;;;;;;;0.85;0.80;;;22.50;78.60;;;;;;6208585;22;20000;-57
2022/05/09 11:04:23;;;;;;;2.50;0.95;;;23.10;79.80;;;;;;6245384;23;20451;-57
2022/05/09 11:07:10;;;;;;;3.10;1.05;;;22.50;51.10;;;;;;6218461;23;20142;-57
2022/05/09 11:09:56;;;;;;;2.55;1.35;;;22.80;79.40;;;;;;6255342;23;20066;-58
2022/05/09 11:12:43;;;;;;;0.95;0.75;;;22.80;79.40;;;;;;6255390;23;20053;-57
2022/05/09 11:15:14;;;;;;;2.25;1.10;;;22.50;79.20;;;;;;6244767;23;20000;-55
2022/05/09 11:18:01;;;;;;;1.45;0.80;;;22.40;79.00;;;;;;6255429;23;20000;-56
2022/05/09 11:20:34;;;;;;;2.22;0.70;;;22.90;79.20;;;;;;6254688;23;20075;-57
2022/05/09 11:23:18;;;;;;;1.17;0.82;;;22.70;79.10;;;;;;6244950;23;20004;-56
2022/05/09 11:25:56;;;;;;;2.85;0.80;;;22.60;79.20;;;;;;6255250;23;20067;-57
2022/05/09 11:28:59;;;;;;;2.03;0.90;;;22.80;79.50;;;;;;6255103;23;20015;-57
2022/05/09 11:31:52;;;;;;;3.88;1.00;;;23.00;79.30;;;;;;6255191;23;19993;-56
2022/05/09 11:34:24;;;;;;;1.25;0.65;;;22.40;79.90;;;;;;6254936;23;19996;-57
2022/05/09 11:37:11;;;;;;;1.35;0.90;;;22.80;80.20;;;;;;6255020;23;20054;-56
2022/05/09 11:39:49;;;;;;;4.93;1.00;;;22.90;80.30;;;;;;6255291;23;20004;-57
2022/05/09 11:45:26;;;;;;;2.15;0.85;;;22.90;80.00;;;;;;6255226;23;20031;-57
2022/05/09 11:48:07;;;;;;;2.38;0.98;;;22.90;79.90;;;;;;6255209;23;19992;-57
2022/05/09 11:50:48;;;;;;;2.53;1.10;;;22.90;46.80;;;;;;6244906;23;20008;-56
2022/05/09 11:53:15;;;;;;;1.60;1.27;;;22.90;61.50;;;;;;6255121;23;20000;-57
2022/05/09 11:55:43;;;;;;;2.67;0.82;;;23.10;62.60;;;;;;6255084;23;20000;-55
2022/05/09 11:58:10;;;;;;;0.90;0.60;;;23.10;49.90;;;;;;6255033;23;19992;-57
2022/05/09 12:00:35;;;;;;;2.67;0.80;;;22.80;79.50;;;;;;6255119;23;20026;-57
2022/05/09 12:03:06;;;;;;;1.92;1.08;;;22.50;52.20;;;;;;6254677;22;20008;-56
2022/05/09 12:05:32;;;;;;;1.63;0.80;;;22.50;79.00;;;;;;6244681;23;19992;-55
2022/05/09 12:08:13;;;;;;;2.80;0.55;;;22.80;78.70;;;;;;6254908;23;19996;-57
2022/05/09 12:10:41;;;;;;;1.35;0.75;;;22.70;66.70;;;;;;6255025;23;20015;-55
2022/05/09 12:13:41;;;;;;;4.22;0.80;;;22.80;78.90;;;;;;6254919;23;19997;-57
2022/05/09 12:16:07;;;;;;;1.33;0.70;;;;;;;;;;6254899;23;20000;-57
2022/05/09 12:18:55;;;;;;;3.00;0.85;;;23.10;56.00;;;;;;6254940;23;20446;-57
2022/05/09 12:21:24;;;;;;;2.75;0.80;;;22.90;78.90;;;;;;6254852;23;19992;-55
2022/05/09 12:24:07;;;;;;;2.13;0.80;;;23.00;78.20;;;;;;6254914;23;19996;-56
2022/05/09 12:26:35;;;;;;;3.30;0.75;;;23.00;45.60;;;;;;6256164;23;20435;-57
2022/05/09 12:29:18;;;;;;;2.28;0.60;;;23.10;78.60;;;;;;6246984;23;20081;-56
2022/05/09 12:31:47;;;;;;;6.75;1.17;;;23.10;72.50;;;;;;6247078;23;20054;-55
2022/05/09 12:34:21;;;;;;;2.15;0.93;;;23.10;45.30;;;;;;6256920;23;20004;-55
2022/05/09 12:36:47;;;;;;;1.20;0.80;;;23.00;78.40;;;;;;6257045;23;19992;-56
2022/05/09 12:39:29;;;;;;;4.03;0.60;;;23.30;67.90;;;;;;6256727;23;20056;-55
2022/05/09 12:41:58;;;;;;;1.98;0.82;;;23.00;68.00;;;;;;6256905;23;20000;-56
2022/05/09 12:44:39;;;;;;;3.63;0.70;;;23.20;78.50;;;;;;6246860;23;20004;-55
2022/05/09 12:47:20;;;;;;;3.13;0.63;;;23.10;78.60;;;;;;6246604;23;20075;-55
2022/05/09 12:50:04;;;;;;;1.90;0.43;;;23.20;51.30;;;;;;6256566;23;20386;-55
2022/05/09 12:52:33;;;;;;;2.38;0.90;;;23.10;46.10;;;;;;6256600;23;20015;-52
2022/05/09 12:57:46;;;;;;;0.88;0.50;;;23.10;78.80;;;;;;6246493;23;20012;-56
2022/05/09 13:00:16;;;;;;;3.60;0.88;;;23.20;78.90;;;;;;6256611;23;19996;-55
2022/05/09 13:02:42;;;;;;;1.88;0.80;;;23.10;79.00;;;;;;6245893;22;20020;-56
2022/05/09 13:05:09;;;;;;;5.47;0.90;;;23.00;79.30;;;;;;6256576;23;20530;-56
2022/05/09 13:07:59;;;;;;;4.43;0.80;;;23.30;79.70;;;;;;6256443;23;20327;-56
2022/05/09 13:10:26;;;;;;;3.03;0.73;;;23.00;57.20;;;;;;6256565;23;20454;-56
2022/05/09 13:12:57;;;;;;;1.83;0.50;;;23.20;79.20;;;;;;6256647;23;19992;-56
2022/05/09 13:15:23;;;;;;;2.97;0.70;;;23.20;80.50;;;;;;6246822;23;20066;-55
2022/05/09 13:17:56;;;;;;;1.20;0.70;;;23.20;80.60;;;;;;6246656;23;19993;-54
2022/05/09 13:20:23;;;;;;;1.23;0.80;;;23.00;78.70;;;;;;6246727;23;20022;-56
2022/05/09 13:23:01;;;;;;;1.40;0.60;;;23.20;79.40;;;;;;6256460;23;20000;-56
2022/05/09 13:25:37;;;;;;;4.18;0.95;;;23.00;46.20;;;;;;6256524;23;19999;-55
2022/05/09 13:28:04;;;;;;;7.32;0.80;;;23.30;47.50;;;;;;6256416;23;20067;-56
2022/05/09 13:30:36;;;;;;;3.58;0.82;;;22.90;79.80;;;;;;6246485;23;20403;-55
2022/05/09 13:33:03;;;;;;;2.28;0.70;;;22.60;79.80;;;;;;6246543;23;20061;-56
2022/05/09 13:35:37;;;;;;;3.95;1.00;;;23.00;47.20;;;;;;6256366;23;19997;-55
2022/05/09 13:38:26;;;;;;;3.97;0.73;;;22.60;80.60;;;;;;6245870;23;19993;-55
2022/05/09 13:40:58;;;;;;;1.80;0.50;;;23.00;80.40;;;;;;6256338;23;20000;-55